sensor_id;sensor_type;location;lat;lon;timestamp;temperature;humidity
3310;DHT22;1667;53.238;10.394;2023-02-15T00:01:54;10.00;99.90
3310;DHT22;1667;53.238;10.394;2023-02-15T00:06:53;10.00;99.90
3310;DHT22;1667;53.238;10.394;2023-02-15T00:11:52;10.00;99.90
3310;DHT22;1667;53.238;10.394;2023-02-15T00:16:52;10.00;99.90
3310;DHT22;1667;53.238;10.394;2023-02-15T00:21:53;9.90;99.90
3310;DHT22;1667;53.238;10.394;2023-02-15T00:26:52;9.90;99.90
3310;DHT22;1667;53.238;10.394;2023-02-15T00:31:51;9.90;99.90
3310;DHT22;1667;53.238;10.394;2023-02-15T00:36:54;9.80;99.90
3310;DHT22;1667;53.238;10.394;2023-02-15T00:41:53;9.80;99.90
3310;DHT22;1667;53.238;10.394;2023-02-15T00:46:51;9.90;99.90
3310;DHT22;1667;53.238;10.394;2023-02-15T00:51:50;9.90;99.90
3310;DHT22;1667;53.238;10.394;2023-02-15T00:56:50;9.90;99.90
3310;DHT22;1667;53.238;10.394;2023-02-15T01:01:48;9.80;99.90
3310;DHT22;1667;53.238;10.394;2023-02-15T01:06:48;9.80;99.90
3310;DHT22;1667;53.238;10.394;2023-02-15T01:11:47;9.80;99.90
3310;DHT22;1667;53.238;10.394;2023-02-15T01:16:49;9.80;99.90
3310;DHT22;1667;53.238;10.394;2023-02-15T01:21:48;9.80;99.90
3310;DHT22;1667;53.238;10.394;2023-02-15T01:26:46;9.70;99.90
3310;DHT22;1667;53.238;10.394;2023-02-15T01:31:45;9.70;99.90
3310;DHT22;1667;53.238;10.394;2023-02-15T01:36:45;9.70;99.90
3310;DHT22;1667;53.238;10.394;2023-02-15T01:41:44;9.70;99.90
3310;DHT22;1667;53.238;10.394;2023-02-15T01:46:47;9.70;99.90
3310;DHT22;1667;53.238;10.394;2023-02-15T01:51:50;9.70;99.90
3310;DHT22;1667;53.238;10.394;2023-02-15T01:56:54;9.60;99.90
3310;DHT22;1667;53.238;10.394;2023-02-15T02:01:57;9.60;99.90
3310;DHT22;1667;53.238;10.394;2023-02-15T02:06:59;9.60;99.90
3310;DHT22;1667;53.238;10.394;2023-02-15T02:11:58;9.60;99.90
3310;DHT22;1667;53.238;10.394;2023-02-15T02:17:03;9.60;99.90
3310;DHT22;1667;53.238;10.394;2023-02-15T02:22:31;9.60;99.90
3310;DHT22;1667;53.238;10.394;2023-02-15T02:27:39;9.60;99.90
3310;DHT22;1667;53.238;10.394;2023-02-15T02:33:02;9.60;99.90
3310;DHT22;1667;53.238;10.394;2023-02-15T02:38:11;9.50;99.90
3310;DHT22;1667;53.238;10.394;2023-02-15T02:43:19;9.40;99.90
3310;DHT22;1667;53.238;10.394;2023-02-15T02:48:22;9.40;99.90
3310;DHT22;1667;53.238;10.394;2023-02-15T02:53:22;9.40;99.90
3310;DHT22;1667;53.238;10.394;2023-02-15T02:58:24;9.30;99.90
3310;DHT22;1667;53.238;10.394;2023-02-15T03:03:28;9.30;99.90
3310;DHT22;1667;53.238;10.394;2023-02-15T03:08:32;9.30;99.90
3310;DHT22;1667;53.238;10.394;2023-02-15T03:13:33;9.20;99.90
3310;DHT22;1667;53.238;10.394;2023-02-15T03:18:39;9.20;99.90
3310;DHT22;1667;53.238;10.394;2023-02-15T03:23:40;9.20;99.90
3310;DHT22;1667;53.238;10.394;2023-02-15T03:28:46;9.20;99.90
3310;DHT22;1667;53.238;10.394;2023-02-15T03:33:51;9.20;99.90
3310;DHT22;1667;53.238;10.394;2023-02-15T03:38:55;9.20;99.90
3310;DHT22;1667;53.238;10.394;2023-02-15T03:43:59;9.20;99.90
3310;DHT22;1667;53.238;10.394;2023-02-15T03:49:03;9.10;99.90
3310;DHT22;1667;53.238;10.394;2023-02-15T03:54:04;9.30;99.90
3310;DHT22;1667;53.238;10.394;2023-02-15T03:59:04;9.10;99.90
3310;DHT22;1667;53.238;10.394;2023-02-15T04:04:23;9.10;99.90
3310;DHT22;1667;53.238;10.394;2023-02-15T04:09:22;9.00;99.90
3310;DHT22;1667;53.238;10.394;2023-02-15T04:14:38;8.90;99.90
3310;DHT22;1667;53.238;10.394;2023-02-15T04:20:08;8.90;99.90
3310;DHT22;1667;53.238;10.394;2023-02-15T04:25:24;8.90;99.90
3310;DHT22;1667;53.238;10.394;2023-02-15T04:30:25;8.90;99.90
3310;DHT22;1667;53.238;10.394;2023-02-15T04:35:27;8.80;99.90
3310;DHT22;1667;53.238;10.394;2023-02-15T04:40:28;9.00;99.90
3310;DHT22;1667;53.238;10.394;2023-02-15T04:45:26;9.10;99.90
3310;DHT22;1667;53.238;10.394;2023-02-15T04:50:26;8.80;99.90
3310;DHT22;1667;53.238;10.394;2023-02-15T04:55:25;8.80;99.90
3310;DHT22;1667;53.238;10.394;2023-02-15T05:00:24;8.70;99.90
3310;DHT22;1667;53.238;10.394;2023-02-15T05:05:22;8.70;99.90
3310;DHT22;1667;53.238;10.394;2023-02-15T05:10:22;8.70;99.90
3310;DHT22;1667;53.238;10.394;2023-02-15T05:15:21;8.90;99.90
3310;DHT22;1667;53.238;10.394;2023-02-15T05:20:20;8.60;99.90
3310;DHT22;1667;53.238;10.394;2023-02-15T05:25:18;8.50;99.90
3310;DHT22;1667;53.238;10.394;2023-02-15T05:30:36;8.50;99.90
3310;DHT22;1667;53.238;10.394;2023-02-15T05:35:37;8.50;99.90
3310;DHT22;1667;53.238;10.394;2023-02-15T05:40:35;8.50;99.90
3310;DHT22;1667;53.238;10.394;2023-02-15T05:45:34;8.50;99.90
3310;DHT22;1667;53.238;10.394;2023-02-15T05:50:34;8.40;99.90
3310;DHT22;1667;53.238;10.394;2023-02-15T05:55:32;8.40;99.90
3310;DHT22;1667;53.238;10.394;2023-02-15T06:00:32;8.30;99.90
3310;DHT22;1667;53.238;10.394;2023-02-15T06:05:35;8.70;99.90
3310;DHT22;1667;53.238;10.394;2023-02-15T06:10:34;8.70;99.90
3310;DHT22;1667;53.238;10.394;2023-02-15T06:15:32;8.20;99.90
3310;DHT22;1667;53.238;10.394;2023-02-15T06:20:31;8.20;99.90
3310;DHT22;1667;53.238;10.394;2023-02-15T06:25:31;8.20;99.90
3310;DHT22;1667;53.238;10.394;2023-02-15T06:30:32;8.50;99.90
3310;DHT22;1667;53.238;10.394;2023-02-15T06:35:31;8.10;99.90
3310;DHT22;1667;53.238;10.394;2023-02-15T06:40:31;8.40;99.90
3310;DHT22;1667;53.238;10.394;2023-02-15T06:45:30;8.40;99.90
3310;DHT22;1667;53.238;10.394;2023-02-15T06:50:28;8.10;99.90
3310;DHT22;1667;53.238;10.394;2023-02-15T06:55:27;8.10;99.90
3310;DHT22;1667;53.238;10.394;2023-02-15T07:00:27;8.10;99.90
3310;DHT22;1667;53.238;10.394;2023-02-15T07:05:27;8.40;99.90
3310;DHT22;1667;53.238;10.394;2023-02-15T07:10:28;8.00;99.90
3310;DHT22;1667;53.238;10.394;2023-02-15T07:15:28;8.10;99.90
3310;DHT22;1667;53.238;10.394;2023-02-15T07:20:26;8.10;99.90
3310;DHT22;1667;53.238;10.394;2023-02-15T07:25:26;8.10;99.90
3310;DHT22;1667;53.238;10.394;2023-02-15T07:30:25;8.10;99.90
3310;DHT22;1667;53.238;10.394;2023-02-15T07:35:26;8.20;99.90
3310;DHT22;1667;53.238;10.394;2023-02-15T07:40:24;8.10;99.90
3310;DHT22;1667;53.238;10.394;2023-02-15T07:45:23;8.10;99.90
3310;DHT22;1667;53.238;10.394;2023-02-15T07:50:21;8.10;99.90
3310;DHT22;1667;53.238;10.394;2023-02-15T07:55:21;8.10;99.90
3310;DHT22;1667;53.238;10.394;2023-02-15T08:00:21;8.10;99.90
3310;DHT22;1667;53.238;10.394;2023-02-15T08:05:21;8.00;99.90
3310;DHT22;1667;53.238;10.394;2023-02-15T08:10:21;8.10;99.90
3310;DHT22;1667;53.238;10.394;2023-02-15T08:15:40;8.10;99.90
3310;DHT22;1667;53.238;10.394;2023-02-15T08:20:49;8.10;99.90
3310;DHT22;1667;53.238;10.394;2023-02-15T08:25:49;8.50;99.90
3310;DHT22;1667;53.238;10.394;2023-02-15T08:30:47;8.20;99.90
3310;DHT22;1667;53.238;10.394;2023-02-15T08:35:46;8.30;99.90
3310;DHT22;1667;53.238;10.394;2023-02-15T08:40:44;8.60;99.90
3310;DHT22;1667;53.238;10.394;2023-02-15T08:45:44;8.40;99.90
3310;DHT22;1667;53.238;10.394;2023-02-15T08:50:42;8.40;99.90
3310;DHT22;1667;53.238;10.394;2023-02-15T08:55:41;8.40;99.90
3310;DHT22;1667;53.238;10.394;2023-02-15T09:00:40;8.40;99.90
3310;DHT22;1667;53.238;10.394;2023-02-15T09:05:41;8.50;99.90
3310;DHT22;1667;53.238;10.394;2023-02-15T09:10:39;8.60;99.90
3310;DHT22;1667;53.238;10.394;2023-02-15T09:15:38;8.70;99.90
3310;DHT22;1667;53.238;10.394;2023-02-15T09:20:36;8.80;99.90
3310;DHT22;1667;53.238;10.394;2023-02-15T09:25:36;8.60;99.90
3310;DHT22;1667;53.238;10.394;2023-02-15T09:30:35;9.20;99.90
3310;DHT22;1667;53.238;10.394;2023-02-15T09:35:34;8.90;99.90
3310;DHT22;1667;53.238;10.394;2023-02-15T09:40:42;9.00;99.90
3310;DHT22;1667;53.238;10.394;2023-02-15T09:46:15;9.00;99.90
3310;DHT22;1667;53.238;10.394;2023-02-15T09:51:47;9.10;99.90
3310;DHT22;1667;53.238;10.394;2023-02-15T09:56:57;9.20;99.90
3310;DHT22;1667;53.238;10.394;2023-02-15T10:02:03;9.40;99.90
3310;DHT22;1667;53.238;10.394;2023-02-15T10:07:14;9.30;99.90
3310;DHT22;1667;53.238;10.394;2023-02-15T10:12:35;9.40;99.90
3310;DHT22;1667;53.238;10.394;2023-02-15T10:17:48;9.50;99.90
3310;DHT22;1667;53.238;10.394;2023-02-15T10:23:03;9.60;99.90
3310;DHT22;1667;53.238;10.394;2023-02-15T10:28:08;9.70;99.90
3310;DHT22;1667;53.238;10.394;2023-02-15T10:33:12;9.80;99.90
3310;DHT22;1667;53.238;10.394;2023-02-15T10:38:21;10.00;99.90
3310;DHT22;1667;53.238;10.394;2023-02-15T10:43:53;10.00;99.90
3310;DHT22;1667;53.238;10.394;2023-02-15T10:49:15;10.00;99.90
3310;DHT22;1667;53.238;10.394;2023-02-15T10:54:22;10.20;99.90
3310;DHT22;1667;53.238;10.394;2023-02-15T10:59:37;10.30;99.90
3310;DHT22;1667;53.238;10.394;2023-02-15T11:04:55;10.40;99.90
3310;DHT22;1667;53.238;10.394;2023-02-15T11:10:01;10.50;99.90
3310;DHT22;1667;53.238;10.394;2023-02-15T11:15:13;10.60;99.90
3310;DHT22;1667;53.238;10.394;2023-02-15T11:20:19;10.60;99.90
3310;DHT22;1667;53.238;10.394;2023-02-15T11:25:24;10.70;99.90
3310;DHT22;1667;53.238;10.394;2023-02-15T11:30:27;10.70;99.90
3310;DHT22;1667;53.238;10.394;2023-02-15T11:35:29;10.80;99.90
3310;DHT22;1667;53.238;10.394;2023-02-15T11:40:32;10.80;99.90
3310;DHT22;1667;53.238;10.394;2023-02-15T11:45:34;10.90;99.90
3310;DHT22;1667;53.238;10.394;2023-02-15T11:50:33;11.00;99.90
3310;DHT22;1667;53.238;10.394;2023-02-15T11:55:32;11.00;99.90
3310;DHT22;1667;53.238;10.394;2023-02-15T12:00:36;11.10;99.90
3310;DHT22;1667;53.238;10.394;2023-02-15T12:05:40;11.10;99.90
3310;DHT22;1667;53.238;10.394;2023-02-15T12:10:44;11.10;99.90
3310;DHT22;1667;53.238;10.394;2023-02-15T12:15:50;11.10;99.90
3310;DHT22;1667;53.238;10.394;2023-02-15T12:20:49;11.10;99.90
3310;DHT22;1667;53.238;10.394;2023-02-15T12:25:51;11.20;99.90
3310;DHT22;1667;53.238;10.394;2023-02-15T12:30:54;11.30;99.90
3310;DHT22;1667;53.238;10.394;2023-02-15T12:36:00;11.20;99.90
3310;DHT22;1667;53.238;10.394;2023-02-15T12:41:02;11.20;99.90
3310;DHT22;1667;53.238;10.394;2023-02-15T12:46:28;11.20;99.90
3310;DHT22;1667;53.238;10.394;2023-02-15T12:51:45;11.30;99.90
3310;DHT22;1667;53.238;10.394;2023-02-15T12:56:44;11.30;99.90
3310;DHT22;1667;53.238;10.394;2023-02-15T13:01:44;11.20;99.90
3310;DHT22;1667;53.238;10.394;2023-02-15T13:06:48;11.20;99.90
3310;DHT22;1667;53.238;10.394;2023-02-15T13:11:49;11.20;99.90
3310;DHT22;1667;53.238;10.394;2023-02-15T13:16:51;11.20;99.90
3310;DHT22;1667;53.238;10.394;2023-02-15T13:21:52;11.30;99.90
3310;DHT22;1667;53.238;10.394;2023-02-15T13:26:52;11.30;99.90
3310;DHT22;1667;53.238;10.394;2023-02-15T13:32:22;11.30;99.90
3310;DHT22;1667;53.238;10.394;2023-02-15T13:37:41;11.30;99.90
3310;DHT22;1667;53.238;10.394;2023-02-15T13:42:44;11.40;99.90
3310;DHT22;1667;53.238;10.394;2023-02-15T13:47:49;11.40;99.90
3310;DHT22;1667;53.238;10.394;2023-02-15T13:52:55;11.40;99.90
3310;DHT22;1667;53.238;10.394;2023-02-15T14:03:44;11.50;99.90
3310;DHT22;1667;53.238;10.394;2023-02-15T14:08:58;11.70;99.90
3310;DHT22;1667;53.238;10.394;2023-02-15T14:14:11;11.40;99.90
3310;DHT22;1667;53.238;10.394;2023-02-15T14:19:19;11.70;99.90
3310;DHT22;1667;53.238;10.394;2023-02-15T14:24:27;11.40;99.90
3310;DHT22;1667;53.238;10.394;2023-02-15T14:29:37;11.50;99.90
3310;DHT22;1667;53.238;10.394;2023-02-15T14:34:44;11.60;99.90
3310;DHT22;1667;53.238;10.394;2023-02-15T14:39:50;11.60;99.90
3310;DHT22;1667;53.238;10.394;2023-02-15T14:45:18;11.70;99.90
3310;DHT22;1667;53.238;10.394;2023-02-15T14:50:40;11.70;99.90
3310;DHT22;1667;53.238;10.394;2023-02-15T14:55:40;11.70;99.90
3310;DHT22;1667;53.238;10.394;2023-02-15T15:00:39;11.70;99.90
3310;DHT22;1667;53.238;10.394;2023-02-15T15:05:48;11.70;99.90
3310;DHT22;1667;53.238;10.394;2023-02-15T15:10:48;11.70;99.90
3310;DHT22;1667;53.238;10.394;2023-02-15T15:15:47;11.60;99.90
3310;DHT22;1667;53.238;10.394;2023-02-15T15:20:48;11.60;99.90
3310;DHT22;1667;53.238;10.394;2023-02-15T15:25:49;11.50;99.90
3310;DHT22;1667;53.238;10.394;2023-02-15T15:30:50;11.50;99.90
3310;DHT22;1667;53.238;10.394;2023-02-15T15:36:05;11.50;99.90
3310;DHT22;1667;53.238;10.394;2023-02-15T15:41:17;11.60;99.90
3310;DHT22;1667;53.238;10.394;2023-02-15T15:46:29;11.60;99.90
3310;DHT22;1667;53.238;10.394;2023-02-15T15:51:33;11.60;99.90
3310;DHT22;1667;53.238;10.394;2023-02-15T15:56:34;11.60;99.90
3310;DHT22;1667;53.238;10.394;2023-02-15T16:01:37;11.60;99.90
3310;DHT22;1667;53.238;10.394;2023-02-15T16:06:39;11.50;99.90
3310;DHT22;1667;53.238;10.394;2023-02-15T16:11:38;11.50;99.90
3310;DHT22;1667;53.238;10.394;2023-02-15T16:16:38;11.50;99.90
3310;DHT22;1667;53.238;10.394;2023-02-15T16:21:39;11.40;99.90
3310;DHT22;1667;53.238;10.394;2023-02-15T16:26:55;11.40;99.90
3310;DHT22;1667;53.238;10.394;2023-02-15T16:32:00;11.30;99.90
3310;DHT22;1667;53.238;10.394;2023-02-15T16:37:17;11.30;99.90
3310;DHT22;1667;53.238;10.394;2023-02-15T16:42:19;11.20;99.90
3310;DHT22;1667;53.238;10.394;2023-02-15T16:47:22;11.10;99.90
3310;DHT22;1667;53.238;10.394;2023-02-15T16:52:25;11.10;99.90
3310;DHT22;1667;53.238;10.394;2023-02-15T16:57:27;11.00;99.90
3310;DHT22;1667;53.238;10.394;2023-02-15T17:02:28;11.00;99.90
3310;DHT22;1667;53.238;10.394;2023-02-15T17:08:12;10.90;99.90
3310;DHT22;1667;53.238;10.394;2023-02-15T17:13:13;10.90;99.90
3310;DHT22;1667;53.238;10.394;2023-02-15T17:18:15;10.80;99.90
3310;DHT22;1667;53.238;10.394;2023-02-15T17:23:22;10.70;99.90
3310;DHT22;1667;53.238;10.394;2023-02-15T17:28:25;10.70;99.90
3310;DHT22;1667;53.238;10.394;2023-02-15T17:33:35;10.60;99.90
3310;DHT22;1667;53.238;10.394;2023-02-15T17:38:35;10.60;99.90
3310;DHT22;1667;53.238;10.394;2023-02-15T17:43:35;10.80;99.90
3310;DHT22;1667;53.238;10.394;2023-02-15T17:48:35;10.50;99.90
3310;DHT22;1667;53.238;10.394;2023-02-15T17:53:35;10.50;99.90
3310;DHT22;1667;53.238;10.394;2023-02-15T17:58:34;10.40;99.90
3310;DHT22;1667;53.238;10.394;2023-02-15T18:03:39;10.40;99.90
3310;DHT22;1667;53.238;10.394;2023-02-15T18:08:57;10.30;99.90
3310;DHT22;1667;53.238;10.394;2023-02-15T18:14:14;10.30;99.90
3310;DHT22;1667;53.238;10.394;2023-02-15T18:19:14;10.30;99.90
3310;DHT22;1667;53.238;10.394;2023-02-15T18:24:18;10.20;99.90
3310;DHT22;1667;53.238;10.394;2023-02-15T18:29:16;10.20;99.90
3310;DHT22;1667;53.238;10.394;2023-02-15T18:34:21;10.20;99.90
3310;DHT22;1667;53.238;10.394;2023-02-15T18:39:35;10.20;99.90
3310;DHT22;1667;53.238;10.394;2023-02-15T18:44:36;10.10;99.90
3310;DHT22;1667;53.238;10.394;2023-02-15T18:49:34;10.10;99.90
3310;DHT22;1667;53.238;10.394;2023-02-15T18:54:34;10.00;99.90
3310;DHT22;1667;53.238;10.394;2023-02-15T18:59:33;10.00;99.90
3310;DHT22;1667;53.238;10.394;2023-02-15T19:04:31;10.20;99.90
3310;DHT22;1667;53.238;10.394;2023-02-15T19:09:30;9.90;99.90
3310;DHT22;1667;53.238;10.394;2023-02-15T19:14:31;9.90;99.90
3310;DHT22;1667;53.238;10.394;2023-02-15T19:19:30;10.10;99.90
3310;DHT22;1667;53.238;10.394;2023-02-15T19:24:35;9.90;99.90
3310;DHT22;1667;53.238;10.394;2023-02-15T19:29:35;9.80;99.90
3310;DHT22;1667;53.238;10.394;2023-02-15T19:34:34;9.80;99.90
3310;DHT22;1667;53.238;10.394;2023-02-15T19:39:36;9.80;99.90
3310;DHT22;1667;53.238;10.394;2023-02-15T19:44:37;9.80;99.90
3310;DHT22;1667;53.238;10.394;2023-02-15T19:49:39;9.70;99.90
3310;DHT22;1667;53.238;10.394;2023-02-15T19:54:38;9.70;99.90
3310;DHT22;1667;53.238;10.394;2023-02-15T19:59:39;9.70;99.90
3310;DHT22;1667;53.238;10.394;2023-02-15T20:04:38;9.70;99.90
3310;DHT22;1667;53.238;10.394;2023-02-15T20:09:37;9.80;99.90
3310;DHT22;1667;53.238;10.394;2023-02-15T20:14:41;9.60;99.90
3310;DHT22;1667;53.238;10.394;2023-02-15T20:19:39;9.60;99.90
3310;DHT22;1667;53.238;10.394;2023-02-15T20:24:38;9.60;99.90
3310;DHT22;1667;53.238;10.394;2023-02-15T20:29:37;9.50;99.90
3310;DHT22;1667;53.238;10.394;2023-02-15T20:34:37;9.50;99.90
3310;DHT22;1667;53.238;10.394;2023-02-15T20:39:36;9.40;99.90
3310;DHT22;1667;53.238;10.394;2023-02-15T20:44:35;9.40;99.90
3310;DHT22;1667;53.238;10.394;2023-02-15T20:49:33;9.40;99.90
3310;DHT22;1667;53.238;10.394;2023-02-15T20:54:36;9.40;99.90
3310;DHT22;1667;53.238;10.394;2023-02-15T20:59:39;9.30;99.90
3310;DHT22;1667;53.238;10.394;2023-02-15T21:04:38;9.30;99.90
3310;DHT22;1667;53.238;10.394;2023-02-15T21:09:38;9.50;99.90
3310;DHT22;1667;53.238;10.394;2023-02-15T21:14:37;9.30;99.90
3310;DHT22;1667;53.238;10.394;2023-02-15T21:19:35;9.20;99.90
3310;DHT22;1667;53.238;10.394;2023-02-15T21:24:38;9.20;99.90
3310;DHT22;1667;53.238;10.394;2023-02-15T21:29:42;9.10;99.90
3310;DHT22;1667;53.238;10.394;2023-02-15T21:34:40;9.10;99.90
3310;DHT22;1667;53.238;10.394;2023-02-15T21:39:40;9.00;99.90
3310;DHT22;1667;53.238;10.394;2023-02-15T21:44:38;9.10;99.90
3310;DHT22;1667;53.238;10.394;2023-02-15T21:49:55;9.00;99.90
3310;DHT22;1667;53.238;10.394;2023-02-15T21:54:55;9.00;99.90
3310;DHT22;1667;53.238;10.394;2023-02-15T21:59:53;9.20;99.90
3310;DHT22;1667;53.238;10.394;2023-02-15T22:04:51;8.90;99.90
3310;DHT22;1667;53.238;10.394;2023-02-15T22:09:50;8.90;99.90
3310;DHT22;1667;53.238;10.394;2023-02-15T22:14:51;8.80;99.90
3310;DHT22;1667;53.238;10.394;2023-02-15T22:19:51;9.00;99.90
3310;DHT22;1667;53.238;10.394;2023-02-15T22:24:50;8.80;99.90
3310;DHT22;1667;53.238;10.394;2023-02-15T22:29:49;8.90;99.90
3310;DHT22;1667;53.238;10.394;2023-02-15T22:34:48;8.70;99.90
3310;DHT22;1667;53.238;10.394;2023-02-15T22:39:47;8.70;99.90
3310;DHT22;1667;53.238;10.394;2023-02-15T22:44:46;8.70;99.90
3310;DHT22;1667;53.238;10.394;2023-02-15T22:49:46;8.60;99.90
3310;DHT22;1667;53.238;10.394;2023-02-15T22:54:45;8.80;99.90
3310;DHT22;1667;53.238;10.394;2023-02-15T22:59:44;8.60;99.90
3310;DHT22;1667;53.238;10.394;2023-02-15T23:04:42;8.70;99.90
3310;DHT22;1667;53.238;10.394;2023-02-15T23:09:43;8.50;99.90
3310;DHT22;1667;53.238;10.394;2023-02-15T23:14:41;8.50;99.90
3310;DHT22;1667;53.238;10.394;2023-02-15T23:19:41;8.70;99.90
3310;DHT22;1667;53.238;10.394;2023-02-15T23:24:40;8.50;99.90
3310;DHT22;1667;53.238;10.394;2023-02-15T23:29:40;8.50;99.90
3310;DHT22;1667;53.238;10.394;2023-02-15T23:34:38;8.40;99.90
3310;DHT22;1667;53.238;10.394;2023-02-15T23:39:37;8.30;99.90
3310;DHT22;1667;53.238;10.394;2023-02-15T23:44:55;8.30;99.90
3310;DHT22;1667;53.238;10.394;2023-02-15T23:49:54;8.30;99.90
3310;DHT22;1667;53.238;10.394;2023-02-15T23:54:52;8.40;99.90
3310;DHT22;1667;53.238;10.394;2023-02-15T23:59:51;8.60;99.90
